Time;durP1;ratioP1;P1;durP2;ratioP2;P2;SDS_P1;SDS_P2;PMS_P1;PMS_P2;Temp;Humidity;BMP_temperature;BMP_pressure;BME280_temperature;BME280_humidity;BME280_pressure;Samples;Min_cycle;Max_cycle;Signal;HPM_P1;HPM_P2
2024/01/31 00:00:46;;;;;;;23.90;17.63;;;;;;;;;;5055025;28;20208;-81
2024/01/31 00:03:16;;;;;;;25.20;17.97;;;;;;;;;;5045918;28;20220;-78
2024/01/31 00:05:44;;;;;;;22.17;16.60;;;;;;;;;;5046563;28;20267;-80
2024/01/31 00:08:11;;;;;;;22.87;17.97;;;;;;;;;;5057640;28;20221;-80
2024/01/31 00:10:41;;;;;;;21.80;17.70;;;;;;;;;;5041200;28;20613;-80
2024/01/31 00:13:09;;;;;;;23.63;17.80;;;;;;;;;;5062715;28;20738;-82
2024/01/31 00:15:36;;;;;;;23.33;18.00;;;;;;;;;;5051378;28;20740;-80
2024/01/31 00:18:04;;;;;;;23.97;17.70;;;;;;;;;;5040564;28;20732;-81
2024/01/31 00:20:34;;;;;;;21.00;17.90;;;;;;;;;;5060068;28;20209;-82
2024/01/31 00:23:08;;;;;;;23.97;17.97;;;;;;;;;;5052780;28;20240;-80
2024/01/31 00:25:40;;;;;;;24.90;18.77;;;;;;;;;;5040661;28;20256;-80
2024/01/31 00:28:08;;;;;;;22.63;18.30;;;;;;;;;;5036727;28;20209;-80
2024/01/31 00:30:35;;;;;;;22.83;18.07;;;;;;;;;;5050396;28;20181;-80
2024/01/31 00:33:05;;;;;;;27.10;18.57;;;;;;;;;;5023929;28;20213;-80
2024/01/31 00:35:34;;;;;;;22.53;17.37;;;;;;;;;;5054366;28;20706;-81
2024/01/31 00:38:03;;;;;;;24.03;18.60;;;;;;;;;;5053519;28;20260;-79
2024/01/31 00:40:31;;;;;;;21.77;17.80;;;;;;;;;;5070046;28;20223;-83
2024/01/31 00:42:59;;;;;;;24.17;18.40;;;;;;;;;;5069101;28;20193;-81
2024/01/31 00:45:27;;;;;;;26.73;19.07;;;;;;;;;;5062157;28;20677;-83
2024/01/31 00:47:54;;;;;;;22.40;17.43;;;;;;;;;;5070060;28;20197;-80
2024/01/31 00:50:21;;;;;;;23.13;16.77;;;;;;;;;;5035922;28;20197;-82
2024/01/31 00:52:48;;;;;;;24.50;18.57;;;;;;;;;;5051866;28;20283;-82
2024/01/31 00:55:17;;;;;;;24.80;18.07;;;;;;;;;;5041376;28;20233;-81
2024/01/31 00:57:44;;;;;;;23.53;17.37;;;;;;;;;;5037180;28;20202;-83
2024/01/31 01:00:12;;;;;;;23.77;18.20;;;;;;;;;;5053573;28;20193;-81
2024/01/31 01:02:42;;;;;;;23.50;17.37;;;;;;;;;;5058072;28;20194;-81
2024/01/31 01:05:11;;;;;;;23.60;18.03;;;;;;;;;;5046588;28;20202;-82
2024/01/31 01:07:41;;;;;;;22.70;17.27;;;;;;;;;;5055320;28;20267;-81
2024/01/31 01:10:13;;;;;;;24.80;17.87;;;;;;;;;;5073124;28;20250;-80
2024/01/31 01:12:44;;;;;;;22.43;17.47;;;;;;;;;;5071874;28;20212;-79
2024/01/31 01:15:16;;;;;;;22.80;17.60;;;;;;;;;;5059365;28;20701;-80
2024/01/31 01:17:43;;;;;;;25.53;18.20;;;;;;;;;;5053443;28;20197;-81
2024/01/31 01:20:09;;;;;;;24.90;18.07;;;;;;;;;;5058040;28;20202;-79
2024/01/31 01:22:39;;;;;;;24.73;17.73;;;;;;;;;;5053650;28;20251;-81
2024/01/31 01:25:05;;;;;;;22.50;17.93;;;;;;;;;;5036489;28;20198;-82
2024/01/31 01:27:35;;;;;;;22.50;17.20;;;;;;;;;;5061901;28;20209;-79
2024/01/31 01:30:02;;;;;;;26.53;17.33;;;;;;;;;;5073092;28;20209;-81
2024/01/31 01:32:34;;;;;;;21.87;17.53;;;;;;;;;;5061023;28;20196;-79
2024/01/31 01:35:05;;;;;;;23.23;17.40;;;;;;;;;;5058518;28;20224;-81
2024/01/31 01:37:32;;;;;;;24.27;18.20;;;;;;;;;;5062438;28;20294;-81
2024/01/31 01:39:59;;;;;;;24.40;18.40;;;;;;;;;;5063745;28;20216;-80
2024/01/31 01:42:29;;;;;;;23.00;17.83;;;;;;;;;;5062238;28;20292;-82
2024/01/31 01:44:55;;;;;;;21.80;17.43;;;;;;;;;;5055824;28;20240;-78
2024/01/31 01:47:24;;;;;;;25.20;18.50;;;;;;;;;;5043472;28;20182;-79
2024/01/31 01:49:50;;;;;;;24.27;17.77;;;;;;;;;;5048766;28;20217;-80
2024/01/31 01:52:21;;;;;;;26.20;18.80;;;;;;;;;;5054200;28;20201;-81
2024/01/31 01:54:49;;;;;;;24.47;17.33;;;;;;;;;;5053726;28;20739;-81
2024/01/31 01:57:16;;;;;;;23.30;17.90;;;;;;;;;;5052370;28;20213;-79
2024/01/31 01:59:45;;;;;;;25.50;17.93;;;;;;;;;;5052171;28;20186;-79
2024/01/31 02:02:12;;;;;;;24.50;17.90;;;;;;;;;;5051560;28;20198;-81
2024/01/31 02:04:39;;;;;;;23.63;17.53;;;;;;;;;;5033668;28;20204;-80
2024/01/31 02:07:06;;;;;;;24.03;18.37;;;;;;;;;;5038045;28;20204;-80
2024/01/31 02:09:38;;;;;;;24.17;18.03;;;;;;;;;;5046855;28;20197;-80
2024/01/31 02:12:13;;;;;;;27.20;18.87;;;;;;;;;;5059247;28;20262;-79
2024/01/31 02:14:47;;;;;;;28.20;18.40;;;;;;;;;;5063694;28;20201;-82
2024/01/31 02:17:16;;;;;;;25.30;18.10;;;;;;;;;;5061138;28;20224;-82
2024/01/31 02:19:43;;;;;;;25.67;18.30;;;;;;;;;;5058707;28;20197;-80
2024/01/31 02:22:16;;;;;;;29.37;18.40;;;;;;;;;;5057199;28;20272;-79
2024/01/31 02:24:43;;;;;;;25.53;18.50;;;;;;;;;;5033541;28;20200;-79
2024/01/31 02:27:09;;;;;;;25.23;17.30;;;;;;;;;;5051997;28;20193;-81
2024/01/31 02:29:37;;;;;;;25.90;18.33;;;;;;;;;;5058601;28;20209;-82
2024/01/31 02:32:07;;;;;;;24.13;17.40;;;;;;;;;;5062275;28;20201;-82
2024/01/31 02:34:36;;;;;;;26.93;18.17;;;;;;;;;;5063668;28;20197;-80
2024/01/31 02:37:09;;;;;;;22.43;17.73;;;;;;;;;;5071029;28;20203;-80
2024/01/31 02:39:40;;;;;;;24.00;18.07;;;;;;;;;;5065936;28;20280;-80
2024/01/31 02:42:12;;;;;;;24.20;17.87;;;;;;;;;;5060144;28;20222;-80
2024/01/31 02:44:42;;;;;;;24.23;17.90;;;;;;;;;;5061781;28;20204;-80
2024/01/31 02:47:14;;;;;;;23.27;17.87;;;;;;;;;;5063650;28;20276;-82
2024/01/31 02:49:45;;;;;;;26.23;18.07;;;;;;;;;;5063241;28;20261;-82
2024/01/31 02:52:12;;;;;;;24.33;17.97;;;;;;;;;;5059925;28;20605;-82
2024/01/31 02:54:39;;;;;;;23.77;18.57;;;;;;;;;;5064193;28;20193;-80
2024/01/31 02:57:09;;;;;;;25.33;18.37;;;;;;;;;;5064934;28;20216;-82
2024/01/31 02:59:36;;;;;;;23.27;17.40;;;;;;;;;;5051037;28;20194;-80
2024/01/31 03:02:05;;;;;;;23.73;17.53;;;;;;;;;;5055371;28;20222;-80
2024/01/31 03:04:32;;;;;;;24.37;18.03;;;;;;;;;;5057048;28;20267;-80
2024/01/31 03:06:59;;;;;;;23.33;18.07;;;;;;;;;;5059945;28;20246;-80
2024/01/31 03:09:27;;;;;;;25.43;18.07;;;;;;;;;;5053332;28;20190;-81
2024/01/31 03:11:55;;;;;;;25.23;18.27;;;;;;;;;;5055029;28;20206;-80
2024/01/31 03:14:22;;;;;;;24.23;17.77;;;;;;;;;;5055263;28;20220;-80
2024/01/31 03:16:48;;;;;;;26.13;18.47;;;;;;;;;;5062823;28;20238;-80
2024/01/31 03:19:15;;;;;;;28.00;18.43;;;;;;;;;;5056069;28;20276;-81
2024/01/31 03:21:42;;;;;;;24.30;18.77;;;;;;;;;;5041594;28;20704;-80
2024/01/31 03:24:12;;;;;;;24.43;18.37;;;;;;;;;;5054255;28;20209;-82
2024/01/31 03:26:41;;;;;;;25.23;18.70;;;;;;;;;;5064861;28;20658;-81
2024/01/31 03:29:20;;;;;;;26.33;18.93;;;;;;;;;;5059146;28;20223;-79
2024/01/31 03:31:47;;;;;;;25.43;18.20;;;;;;;;;;5045911;28;20198;-81
2024/01/31 03:34:17;;;;;;;28.57;19.80;;;;;;;;;;5066883;28;20201;-80
2024/01/31 03:36:45;;;;;;;30.07;19.10;;;;;;;;;;5044335;28;20219;-81
2024/01/31 03:39:12;;;;;;;26.03;19.77;;;;;;;;;;5050934;28;20282;-85
2024/01/31 03:41:44;;;;;;;26.13;19.87;;;;;;;;;;5066068;28;20200;-80
2024/01/31 03:44:13;;;;;;;26.27;19.13;;;;;;;;;;5043522;28;20189;-82
2024/01/31 03:46:41;;;;;;;25.13;18.97;;;;;;;;;;5051826;28;20224;-80
2024/01/31 03:49:08;;;;;;;26.50;19.07;;;;;;;;;;5050462;28;20654;-79
2024/01/31 03:51:36;;;;;;;26.00;19.27;;;;;;;;;;5042467;28;20194;-79
2024/01/31 03:54:03;;;;;;;25.47;18.90;;;;;;;;;;5049081;28;20233;-79
2024/01/31 03:56:30;;;;;;;26.67;19.37;;;;;;;;;;5048948;28;20240;-78
2024/01/31 03:58:57;;;;;;;26.60;19.57;;;;;;;;;;5042879;28;20202;-79
2024/01/31 04:01:24;;;;;;;26.27;20.20;;;;;;;;;;5068155;28;20192;-78
2024/01/31 04:03:53;;;;;;;28.80;19.60;;;;;;;;;;5058247;28;20208;-79
2024/01/31 04:06:19;;;;;;;25.27;19.37;;;;;;;;;;5067720;28;20189;-80
2024/01/31 04:08:49;;;;;;;28.17;19.57;;;;;;;;;;5070482;28;20284;-81
2024/01/31 04:11:24;;;;;;;28.03;19.63;;;;;;;;;;5051612;28;20208;-79
2024/01/31 04:13:52;;;;;;;27.90;19.47;;;;;;;;;;5055002;28;20261;-81
2024/01/31 04:16:22;;;;;;;26.20;19.53;;;;;;;;;;5042030;28;20234;-81
2024/01/31 04:18:49;;;;;;;25.80;19.30;;;;;;;;;;5049691;28;20202;-80
2024/01/31 04:21:19;;;;;;;25.00;19.23;;;;;;;;;;5050135;28;20193;-80
2024/01/31 04:23:50;;;;;;;25.67;19.43;;;;;;;;;;5050473;28;20213;-82
2024/01/31 04:26:19;;;;;;;24.33;18.93;;;;;;;;;;5058456;28;20267;-80
2024/01/31 04:28:51;;;;;;;27.43;19.87;;;;;;;;;;5067963;28;20263;-83
2024/01/31 04:31:18;;;;;;;26.60;19.93;;;;;;;;;;5067557;28;20193;-81
2024/01/31 04:33:45;;;;;;;25.67;18.73;;;;;;;;;;5065654;28;20193;-81
2024/01/31 04:36:14;;;;;;;24.10;19.03;;;;;;;;;;5072463;28;20217;-81
2024/01/31 04:38:43;;;;;;;26.40;19.13;;;;;;;;;;5062312;28;20198;-80
2024/01/31 04:41:17;;;;;;;27.60;20.00;;;;;;;;;;5052436;28;20228;-82
2024/01/31 04:43:46;;;;;;;27.47;19.47;;;;;;;;;;5055139;28;20263;-82
2024/01/31 04:46:19;;;;;;;28.83;20.27;;;;;;;;;;5053555;28;20193;-80
2024/01/31 04:48:48;;;;;;;26.70;20.40;;;;;;;;;;5040464;28;20236;-81
2024/01/31 04:51:18;;;;;;;25.87;19.17;;;;;;;;;;5054777;28;20244;-80
2024/01/31 04:53:50;;;;;;;27.73;20.03;;;;;;;;;;5059343;28;20291;-78
2024/01/31 04:56:18;;;;;;;27.93;19.80;;;;;;;;;;5067455;28;20231;-80
2024/01/31 04:58:44;;;;;;;27.30;19.67;;;;;;;;;;5053641;28;20280;-84
2024/01/31 05:01:16;;;;;;;27.27;21.80;;;;;;;;;;5046359;28;20205;-78
2024/01/31 05:03:43;;;;;;;30.70;22.87;;;;;;;;;;5061816;28;20205;-80
2024/01/31 05:06:11;;;;;;;27.47;22.77;;;;;;;;;;5058694;28;20193;-80
2024/01/31 05:08:37;;;;;;;28.47;20.37;;;;;;;;;;5056692;28;20212;-82
2024/01/31 05:11:12;;;;;;;28.80;20.70;;;;;;;;;;5071594;28;20303;-80
2024/01/31 05:13:39;;;;;;;26.97;20.90;;;;;;;;;;5057667;28;20189;-79
2024/01/31 05:16:09;;;;;;;26.60;21.13;;;;;;;;;;5065893;28;20245;-81
2024/01/31 05:18:42;;;;;;;27.83;21.73;;;;;;;;;;5054821;28;20259;-80
2024/01/31 05:21:11;;;;;;;32.10;22.97;;;;;;;;;;5059550;28;20217;-81
2024/01/31 05:23:51;;;;;;;26.97;20.07;;;;;;;;;;5051344;28;20185;-80
2024/01/31 05:26:23;;;;;;;31.67;24.30;;;;;;;;;;5042361;28;20217;-82
2024/01/31 05:28:51;;;;;;;33.53;25.20;;;;;;;;;;5040918;28;20282;-79
2024/01/31 05:31:22;;;;;;;27.27;20.20;;;;;;;;;;5053015;28;20252;-83
2024/01/31 05:33:49;;;;;;;26.83;20.00;;;;;;;;;;5053222;28;20193;-81
2024/01/31 05:36:16;;;;;;;27.13;20.20;;;;;;;;;;5056576;28;20299;-80
2024/01/31 05:38:43;;;;;;;26.67;20.80;;;;;;;;;;5054275;28;20197;-81
2024/01/31 05:41:10;;;;;;;29.10;21.07;;;;;;;;;;5052097;28;20275;-81
2024/01/31 05:43:37;;;;;;;29.37;20.10;;;;;;;;;;5047429;28;20216;-80
2024/01/31 05:46:04;;;;;;;31.67;22.73;;;;;;;;;;5053671;28;20224;-80
2024/01/31 05:48:31;;;;;;;27.77;21.63;;;;;;;;;;5052251;28;20201;-81
2024/01/31 05:50:58;;;;;;;26.60;19.87;;;;;;;;;;5058935;28;20261;-82
2024/01/31 05:53:26;;;;;;;29.10;21.43;;;;;;;;;;5039665;28;20305;-80
2024/01/31 05:55:58;;;;;;;25.40;19.00;;;;;;;;;;5031887;28;20740;-80
2024/01/31 05:58:29;;;;;;;25.23;18.43;;;;;;;;;;5031860;28;20187;-81
2024/01/31 06:00:56;;;;;;;26.17;18.17;;;;;;;;;;5016620;28;20217;-80
2024/01/31 06:03:27;;;;;;;23.73;18.50;;;;;;;;;;5031815;28;20294;-82
2024/01/31 06:05:58;;;;;;;25.23;19.97;;;;;;;;;;5030598;28;20190;-81
2024/01/31 06:08:32;;;;;;;28.80;21.37;;;;;;;;;;5033035;28;20752;-81
2024/01/31 06:11:04;;;;;;;30.77;22.27;;;;;;;;;;5031661;28;20288;-80
2024/01/31 06:13:34;;;;;;;31.17;22.40;;;;;;;;;;5035809;28;21101;-77
2024/01/31 06:16:02;;;;;;;32.07;22.33;;;;;;;;;;5030745;28;20316;-81
2024/01/31 06:18:34;;;;;;;28.63;20.77;;;;;;;;;;5030244;28;20212;-78
2024/01/31 06:21:02;;;;;;;25.87;19.97;;;;;;;;;;5031069;28;20229;-80
2024/01/31 06:23:32;;;;;;;24.33;18.60;;;;;;;;;;5032409;28;20249;-79
2024/01/31 06:26:07;;;;;;;24.83;17.90;;;;;;;;;;5031023;28;20245;-82
2024/01/31 06:28:38;;;;;;;23.03;18.50;;;;;;;;;;5031060;28;20205;-80
2024/01/31 06:31:15;;;;;;;25.40;18.27;;;;;;;;;;5029873;28;20198;-81
2024/01/31 06:33:46;;;;;;;25.97;18.23;;;;;;;;;;5031093;28;20197;-81
2024/01/31 06:36:13;;;;;;;22.27;17.43;;;;;;;;;;5030204;28;20218;-79
2024/01/31 06:38:40;;;;;;;24.70;17.87;;;;;;;;;;5030658;28;20194;-82
2024/01/31 06:41:07;;;;;;;26.00;18.40;;;;;;;;;;5013312;28;20194;-82
2024/01/31 06:43:38;;;;;;;24.73;18.43;;;;;;;;;;5027494;28;20205;-79
2024/01/31 06:46:05;;;;;;;23.43;17.73;;;;;;;;;;5014068;28;20202;-80
2024/01/31 06:48:34;;;;;;;22.43;17.37;;;;;;;;;;5015937;28;20260;-80
2024/01/31 06:51:02;;;;;;;24.53;17.67;;;;;;;;;;5029812;28;20264;-79
2024/01/31 06:53:31;;;;;;;24.67;17.40;;;;;;;;;;5034799;28;20244;-77
2024/01/31 06:56:00;;;;;;;22.97;18.10;;;;;;;;;;5056089;28;20221;-79
2024/01/31 06:58:30;;;;;;;23.63;18.27;;;;;;;;;;5050863;28;20189;-77
2024/01/31 07:01:01;;;;;;;24.40;18.37;;;;;;;;;;5050362;28;20209;-78
2024/01/31 07:03:30;;;;;;;25.63;20.47;;;;;;;;;;5049330;28;20189;-77
2024/01/31 07:05:57;;;;;;;26.63;20.87;;;;;;;;;;5049127;28;20285;-79
2024/01/31 07:08:31;;;;;;;25.73;20.67;;;;;;;;;;5050061;28;20847;-79
2024/01/31 07:11:04;;;;;;;25.77;19.57;;;;;;;;;;5049335;28;20214;-80
2024/01/31 07:13:34;;;;;;;27.93;18.63;;;;;;;;;;5037436;28;20284;-79
2024/01/31 07:16:09;;;;;;;25.70;19.17;;;;;;;;;;5045079;28;20277;-80
2024/01/31 07:18:42;;;;;;;27.60;20.20;;;;;;;;;;5041530;28;20194;-80
2024/01/31 07:21:11;;;;;;;29.47;20.57;;;;;;;;;;5045594;28;20222;-82
2024/01/31 07:23:43;;;;;;;29.20;21.03;;;;;;;;;;5048978;28;20206;-80
2024/01/31 07:26:19;;;;;;;27.93;19.87;;;;;;;;;;5021255;28;20201;-85
2024/01/31 07:28:50;;;;;;;26.60;19.93;;;;;;;;;;5044860;28;20204;-82
2024/01/31 07:31:19;;;;;;;27.53;19.30;;;;;;;;;;5032183;28;20204;-80
2024/01/31 07:33:46;;;;;;;24.40;20.03;;;;;;;;;;5050914;28;20276;-79
2024/01/31 07:36:14;;;;;;;26.53;19.87;;;;;;;;;;5028882;28;20221;-82
2024/01/31 07:38:47;;;;;;;25.43;19.20;;;;;;;;;;5051371;28;20292;-81
2024/01/31 07:41:14;;;;;;;25.23;19.50;;;;;;;;;;5051937;28;20267;-84
2024/01/31 07:43:42;;;;;;;25.47;19.47;;;;;;;;;;5034775;28;20204;-82
2024/01/31 07:46:13;;;;;;;25.23;18.87;;;;;;;;;;5048172;28;20277;-78
2024/01/31 07:48:40;;;;;;;25.77;19.20;;;;;;;;;;5056253;28;20208;-78
2024/01/31 07:51:09;;;;;;;25.30;20.13;;;;;;;;;;5045511;28;20205;-79
2024/01/31 07:53:45;;;;;;;24.47;19.43;;;;;;;;;;5050092;28;20282;-81
2024/01/31 07:56:11;;;;;;;26.70;20.87;;;;;;;;;;5049993;28;20209;-79
2024/01/31 07:58:48;;;;;;;29.13;21.90;;;;;;;;;;5024347;28;20305;-81
2024/01/31 08:01:15;;;;;;;30.13;22.53;;;;;;;;;;5027346;28;20195;-80
2024/01/31 08:03:57;;;;;;;32.63;23.83;;;;;;;;;;5046727;28;20683;-84
2024/01/31 08:06:24;;;;;;;29.90;23.27;;;;;;;;;;5042697;28;20189;-81
2024/01/31 08:08:51;;;;;;;32.73;24.33;;;;;;;;;;5032451;28;20277;-78
2024/01/31 08:11:21;;;;;;;33.47;25.57;;;;;;;;;;5052528;28;20197;-78
2024/01/31 08:13:53;;;;;;;33.63;25.57;;;;;;;;;;5050496;28;20206;-81
2024/01/31 08:16:24;;;;;;;34.90;26.27;;;;;;;;;;5051202;28;20193;-80
2024/01/31 08:18:53;;;;;;;33.53;24.90;;;;;;;;;;5033772;28;20515;-80
2024/01/31 08:21:20;;;;;;;37.47;25.20;;;;;;;;;;5038300;28;20248;-79
2024/01/31 08:23:47;;;;;;;33.20;26.07;;;;;;;;;;5035227;28;20194;-84
2024/01/31 08:26:17;;;;;;;33.17;25.70;;;;;;;;;;5036278;28;20198;-78
2024/01/31 08:28:46;;;;;;;30.87;25.17;;;;;;;;;;5040044;28;20305;-81
2024/01/31 08:31:28;;;;;;;33.53;24.87;;;;;;;;;;5035999;28;20856;-81
2024/01/31 08:33:55;;;;;;;30.87;24.60;;;;;;;;;;5018725;28;20281;-81
2024/01/31 08:36:21;;;;;;;32.60;24.27;;;;;;;;;;5041445;28;20185;-82
2024/01/31 08:38:48;;;;;;;28.93;23.33;;;;;;;;;;5034485;28;20252;-79
2024/01/31 08:41:20;;;;;;;30.13;23.30;;;;;;;;;;5052532;28;20193;-79
2024/01/31 08:43:48;;;;;;;31.10;24.37;;;;;;;;;;5042578;28;20202;-80
2024/01/31 08:46:15;;;;;;;31.00;23.77;;;;;;;;;;5040748;28;20424;-81
2024/01/31 08:48:46;;;;;;;28.57;23.33;;;;;;;;;;5050105;28;20213;-80
2024/01/31 08:51:14;;;;;;;27.60;23.33;;;;;;;;;;5026994;28;20198;-81
2024/01/31 08:53:44;;;;;;;29.13;22.83;;;;;;;;;;5034299;28;20229;-78
2024/01/31 08:56:11;;;;;;;29.10;22.67;;;;;;;;;;5035344;28;20221;-81
2024/01/31 08:58:38;;;;;;;28.83;22.53;;;;;;;;;;5037111;28;20217;-82
2024/01/31 09:01:07;;;;;;;27.03;22.47;;;;;;;;;;5035309;28;20193;-80
2024/01/31 09:03:37;;;;;;;27.27;22.43;;;;;;;;;;5037821;28;20216;-81
2024/01/31 09:06:06;;;;;;;26.87;21.07;;;;;;;;;;5036903;28;20745;-82
2024/01/31 09:08:35;;;;;;;27.07;21.77;;;;;;;;;;5052336;28;20194;-80
2024/01/31 09:11:08;;;;;;;27.20;21.30;;;;;;;;;;5053202;28;20197;-82
2024/01/31 09:13:35;;;;;;;28.37;21.10;;;;;;;;;;5052425;28;20666;-78
2024/01/31 09:16:02;;;;;;;27.87;22.73;;;;;;;;;;5051962;28;20201;-77
2024/01/31 09:18:29;;;;;;;29.17;22.53;;;;;;;;;;5051988;28;20241;-80
2024/01/31 09:20:55;;;;;;;26.27;21.77;;;;;;;;;;5053261;28;20292;-79
2024/01/31 09:23:23;;;;;;;27.13;22.53;;;;;;;;;;5051305;28;20190;-80
2024/01/31 09:25:54;;;;;;;30.00;23.13;;;;;;;;;;5050161;28;20200;-81
2024/01/31 09:28:21;;;;;;;25.97;21.83;;;;;;;;;;5054566;28;20707;-80
2024/01/31 09:30:48;;;;;;;28.93;23.80;;;;;;;;;;5053696;28;20190;-82
2024/01/31 09:33:15;;;;;;;27.13;22.97;;;;;;;;;;5029296;28;20200;-82
2024/01/31 09:35:44;;;;;;;32.70;27.60;;;;;;;;;;5037718;28;20204;-82
2024/01/31 09:38:11;;;;;;;30.00;24.57;;;;;;;;;;5039584;28;20241;-82
2024/01/31 09:40:41;;;;;;;29.53;24.00;;;;;;;;;;5053771;28;20219;-82
2024/01/31 09:43:12;;;;;;;31.20;24.10;;;;;;;;;;5058112;28;20310;-80
2024/01/31 09:45:39;;;;;;;28.90;23.87;;;;;;;;;;5035674;28;20207;-79
2024/01/31 09:48:12;;;;;;;31.47;24.33;;;;;;;;;;5053877;28;20243;-82
2024/01/31 09:50:39;;;;;;;28.00;24.07;;;;;;;;;;5051544;28;20228;-81
2024/01/31 09:53:10;;;;;;;28.07;24.27;;;;;;;;;;5036553;28;20222;-80
2024/01/31 09:55:40;;;;;;;29.57;23.47;;;;;;;;;;5051852;28;20235;-84
2024/01/31 09:58:06;;;;;;;27.87;23.40;;;;;;;;;;5019742;28;20217;-82
2024/01/31 10:00:34;;;;;;;28.30;25.17;;;;;;;;;;5037344;28;20182;-80
2024/01/31 10:03:04;;;;;;;27.63;24.63;;;;;;;;;;5042142;28;20201;-83
2024/01/31 10:05:33;;;;;;;29.80;24.43;;;;;;;;;;5054447;28;20201;-83
2024/01/31 10:08:05;;;;;;;28.97;24.77;;;;;;;;;;5036644;28;20197;-80
2024/01/31 10:10:38;;;;;;;28.33;24.77;;;;;;;;;;5035428;28;20202;-82
2024/01/31 10:13:11;;;;;;;28.40;24.63;;;;;;;;;;5018939;28;20221;-81
2024/01/31 10:15:42;;;;;;;29.50;24.37;;;;;;;;;;5035815;28;20196;-82
2024/01/31 10:18:11;;;;;;;27.63;24.17;;;;;;;;;;5035444;28;20212;-80
2024/01/31 10:20:38;;;;;;;31.90;24.67;;;;;;;;;;5043766;28;20291;-80
2024/01/31 10:23:13;;;;;;;29.80;25.37;;;;;;;;;;5060198;28;20239;-82
2024/01/31 10:25:44;;;;;;;28.07;24.23;;;;;;;;;;5058558;28;20251;-83
2024/01/31 10:28:11;;;;;;;29.30;24.67;;;;;;;;;;5049185;28;20193;-82
2024/01/31 10:30:43;;;;;;;30.63;26.13;;;;;;;;;;5060029;28;20192;-82
2024/01/31 10:33:11;;;;;;;31.13;25.93;;;;;;;;;;5033588;28;20178;-80
2024/01/31 10:35:48;;;;;;;31.50;27.40;;;;;;;;;;5043674;28;20748;-81
2024/01/31 10:38:37;;;;;;;32.13;26.63;;;;;;;;;;5039803;28;20234;-79
2024/01/31 10:41:08;;;;;;;32.47;26.63;;;;;;;;;;5036008;28;20197;-81
2024/01/31 10:43:37;;;;;;;35.30;26.80;;;;;;;;;;5042329;28;20673;-81
2024/01/31 10:46:04;;;;;;;31.70;26.60;;;;;;;;;;5020019;28;20201;-81
2024/01/31 10:48:32;;;;;;;31.33;26.70;;;;;;;;;;5035856;28;20197;-83
2024/01/31 10:51:00;;;;;;;32.93;27.30;;;;;;;;;;5034386;28;20194;-82
2024/01/31 10:53:38;;;;;;;32.60;26.77;;;;;;;;;;5018515;28;20229;-81
2024/01/31 10:56:05;;;;;;;32.00;26.80;;;;;;;;;;5017229;28;20323;-79
2024/01/31 10:58:35;;;;;;;30.17;26.13;;;;;;;;;;5049626;28;20292;-80
2024/01/31 11:01:03;;;;;;;31.03;25.53;;;;;;;;;;5049372;28;20215;-82
2024/01/31 11:03:34;;;;;;;28.37;25.37;;;;;;;;;;5050997;28;20243;-80
2024/01/31 11:06:01;;;;;;;29.37;25.90;;;;;;;;;;5032534;28;20217;-84
2024/01/31 11:08:33;;;;;;;31.47;26.37;;;;;;;;;;5050612;28;20209;-80
2024/01/31 11:10:59;;;;;;;28.17;25.10;;;;;;;;;;5038912;28;20287;-79
2024/01/31 11:13:27;;;;;;;31.37;25.23;;;;;;;;;;5020926;28;20816;-80
2024/01/31 11:15:56;;;;;;;29.63;26.43;;;;;;;;;;5047057;28;20200;-83
2024/01/31 11:18:24;;;;;;;28.47;25.10;;;;;;;;;;5034820;28;20202;-79
2024/01/31 11:20:55;;;;;;;29.90;26.23;;;;;;;;;;5032631;28;20205;-82
2024/01/31 11:23:28;;;;;;;30.63;26.30;;;;;;;;;;5042444;28;20185;-80
2024/01/31 11:26:05;;;;;;;31.00;26.67;;;;;;;;;;5042820;28;20243;-80
2024/01/31 11:28:31;;;;;;;30.50;25.83;;;;;;;;;;5036971;28;20213;-81
2024/01/31 11:31:04;;;;;;;28.70;25.60;;;;;;;;;;5052466;28;20747;-79
2024/01/31 11:33:34;;;;;;;30.00;25.17;;;;;;;;;;5051837;28;20196;-80
2024/01/31 11:36:01;;;;;;;29.20;24.83;;;;;;;;;;5037020;28;20209;-79
2024/01/31 11:38:28;;;;;;;28.17;25.03;;;;;;;;;;5032481;28;20244;-80
2024/01/31 11:40:55;;;;;;;27.80;24.80;;;;;;;;;;5031920;28;20285;-80
2024/01/31 11:43:23;;;;;;;28.10;25.10;;;;;;;;;;5034130;28;20189;-81
2024/01/31 11:45:50;;;;;;;26.27;23.57;;;;;;;;;;5050635;28;20193;-81
2024/01/31 11:48:17;;;;;;;27.33;24.53;;;;;;;;;;5039189;28;20189;-80
2024/01/31 11:50:44;;;;;;;26.53;23.83;;;;;;;;;;5047695;28;20286;-80
2024/01/31 11:53:14;;;;;;;25.87;23.23;;;;;;;;;;5025173;28;20322;-80
2024/01/31 11:55:54;;;;;;;26.43;23.60;;;;;;;;;;5014527;28;20262;-79
2024/01/31 11:58:23;;;;;;;26.50;23.67;;;;;;;;;;5014265;28;20212;-80
2024/01/31 12:01:00;;;;;;;27.63;24.27;;;;;;;;;;5013786;28;20195;-80
2024/01/31 12:03:31;;;;;;;26.57;23.80;;;;;;;;;;5000735;28;20206;-78
2024/01/31 12:05:58;;;;;;;27.43;24.53;;;;;;;;;;5032189;28;20220;-78
2024/01/31 12:08:27;;;;;;;27.53;23.60;;;;;;;;;;5014083;28;20194;-80
2024/01/31 12:10:54;;;;;;;25.77;23.07;;;;;;;;;;5009897;28;20206;-81
2024/01/31 12:13:27;;;;;;;24.97;22.33;;;;;;;;;;5033083;28;20233;-81
2024/01/31 12:15:59;;;;;;;26.97;23.70;;;;;;;;;;5020376;28;20734;-80
2024/01/31 12:18:33;;;;;;;25.30;22.60;;;;;;;;;;4997419;28;20249;-81
2024/01/31 12:21:09;;;;;;;25.00;22.43;;;;;;;;;;5006938;28;20285;-79
2024/01/31 12:23:41;;;;;;;24.33;21.73;;;;;;;;;;5014396;28;20194;-79
2024/01/31 12:26:10;;;;;;;25.63;21.73;;;;;;;;;;5014204;28;20216;-80
2024/01/31 12:28:41;;;;;;;23.90;21.57;;;;;;;;;;5031923;28;20221;-81
2024/01/31 12:31:10;;;;;;;25.57;21.90;;;;;;;;;;5024377;28;20205;-80
2024/01/31 12:33:38;;;;;;;24.30;21.70;;;;;;;;;;5022173;28;20209;-80
2024/01/31 12:36:07;;;;;;;25.13;22.47;;;;;;;;;;5003457;28;20337;-81
2024/01/31 12:38:45;;;;;;;25.30;22.33;;;;;;;;;;5031741;28;20210;-81
2024/01/31 12:41:12;;;;;;;26.00;23.30;;;;;;;;;;5032115;28;20190;-79
2024/01/31 12:43:39;;;;;;;25.33;22.73;;;;;;;;;;5014234;28;20195;-79
2024/01/31 12:46:11;;;;;;;25.47;22.67;;;;;;;;;;5032226;28;20221;-79
2024/01/31 12:48:38;;;;;;;24.97;21.37;;;;;;;;;;5031938;28;20195;-80
2024/01/31 12:51:08;;;;;;;25.20;20.93;;;;;;;;;;5033119;28;20203;-79
2024/01/31 12:53:38;;;;;;;22.83;20.47;;;;;;;;;;5044890;28;20264;-79
2024/01/31 12:56:05;;;;;;;23.33;20.50;;;;;;;;;;5048966;28;20362;-78
2024/01/31 12:58:34;;;;;;;24.27;21.77;;;;;;;;;;5043653;28;20220;-79
2024/01/31 13:01:06;;;;;;;24.37;21.80;;;;;;;;;;5028549;28;20192;-80
2024/01/31 13:03:35;;;;;;;25.23;22.73;;;;;;;;;;5043009;28;20193;-78
2024/01/31 13:06:03;;;;;;;24.47;21.87;;;;;;;;;;5011976;28;20201;-79
2024/01/31 13:08:39;;;;;;;24.90;22.33;;;;;;;;;;5027154;28;20218;-82
2024/01/31 13:11:09;;;;;;;25.03;22.43;;;;;;;;;;5025684;28;20252;-80
2024/01/31 13:13:40;;;;;;;25.17;22.47;;;;;;;;;;5028528;28;20297;-79
2024/01/31 13:16:06;;;;;;;25.30;22.60;;;;;;;;;;5046260;28;20190;-82
2024/01/31 13:18:36;;;;;;;24.73;22.13;;;;;;;;;;5029018;28;20207;-78
2024/01/31 13:21:08;;;;;;;25.17;22.50;;;;;;;;;;5025741;28;20202;-79
2024/01/31 13:23:35;;;;;;;26.60;23.73;;;;;;;;;;5027260;28;20193;-80
2024/01/31 13:26:07;;;;;;;24.93;22.33;;;;;;;;;;5017741;28;20202;-80
2024/01/31 13:28:33;;;;;;;26.17;23.10;;;;;;;;;;5041380;28;20240;-78
2024/01/31 13:31:01;;;;;;;25.80;23.20;;;;;;;;;;5044932;28;20194;-79
2024/01/31 13:33:29;;;;;;;25.17;22.53;;;;;;;;;;5052605;28;20193;-79
2024/01/31 13:35:56;;;;;;;25.97;23.27;;;;;;;;;;5052149;28;20193;-79
2024/01/31 13:38:22;;;;;;;25.13;22.53;;;;;;;;;;5030087;28;20220;-80
2024/01/31 13:40:54;;;;;;;24.43;22.00;;;;;;;;;;5020840;28;20229;-78
2024/01/31 13:43:26;;;;;;;26.07;23.27;;;;;;;;;;5034523;28;20192;-79
2024/01/31 13:45:58;;;;;;;24.53;22.07;;;;;;;;;;5052088;28;20255;-79
2024/01/31 13:48:30;;;;;;;25.20;22.60;;;;;;;;;;5023024;28;20205;-79
2024/01/31 13:50:57;;;;;;;25.20;22.50;;;;;;;;;;5042749;28;20193;-80
2024/01/31 13:53:25;;;;;;;24.87;22.37;;;;;;;;;;5036547;28;20233;-79
2024/01/31 13:55:52;;;;;;;26.30;23.27;;;;;;;;;;5030061;28;20217;-79
2024/01/31 13:58:21;;;;;;;24.90;22.33;;;;;;;;;;5036730;28;20210;-79
2024/01/31 14:00:54;;;;;;;25.87;23.07;;;;;;;;;;5036523;28;20239;-79
2024/01/31 14:03:21;;;;;;;27.10;24.20;;;;;;;;;;5036399;28;20208;-82
2024/01/31 14:05:50;;;;;;;26.27;23.50;;;;;;;;;;5058533;28;20276;-79
2024/01/31 14:08:19;;;;;;;25.40;22.90;;;;;;;;;;5045230;28;20190;-81
2024/01/31 14:10:46;;;;;;;25.33;22.73;;;;;;;;;;5036664;28;20288;-81
2024/01/31 14:13:15;;;;;;;26.20;23.43;;;;;;;;;;5044818;28;20204;-81
2024/01/31 14:15:42;;;;;;;25.53;22.83;;;;;;;;;;5037810;28;20205;-81
2024/01/31 14:18:09;;;;;;;26.43;22.53;;;;;;;;;;5014990;28;20221;-81
2024/01/31 14:20:41;;;;;;;24.63;22.13;;;;;;;;;;5017033;28;20201;-82
2024/01/31 14:23:15;;;;;;;26.97;23.60;;;;;;;;;;5030870;28;20192;-82
2024/01/31 14:26:05;;;;;;;25.10;22.50;;;;;;;;;;5014189;28;20202;-83
2024/01/31 14:28:39;;;;;;;26.37;23.67;;;;;;;;;;5028697;28;20202;-81